Rechercher aéroport 
image banner adimage banner adimage banner ad
image banner ad

03G - Thermal-G

Situé à Erie, United States

ICAO - 03G, IATA -

Données fournies par Airmate  

Information générale

Coordonnées: N42°1'14" W80°4'15"
Élévation : 1434 feet MSL.
Variation magnétique : -08° East
Voir autres Aéroports à Pennsylvania

Données opérationnelles

Special qualification required
Heure actuelle UTC:
Heure actuelle locale:
Météo à : KERI - Erie Intl/Tom Ridge Field ( 11 km )
METAR: KERI 131951Z 30005KT 10SM SCT049 SCT075 SCT090 26/17 A2985 RMK AO2 SLP104 T02610167
TAF: KERI 131734Z 1318/1418 34007KT P6SM FEW250 FM140200 VRB03KT P6SM SCT250 FM141500 30005KT P6SM VCSH BKN035
Voir NOTAMs / SUP AIP / TFR affectant cet aéroport [VIEW]
Fréquences de communication: [VIEW]

Pistes:

Identifiant RWYQFULongueur (ft)Largeur (ft)SurfaceLDA (ft)
0764°1264110GRASS
25244°1264110GRASS

Coordonnées de l'aéroport

Adresse: Erie United States

Vue satellite de 03G